Aeroporto :
LOGIN :

Iscrizione | Disclaimer

   EN    FR    IT 

 










Sommario :    VFR   VFR Marginale   IFR   IFR Intensivo   IFR Molto Intensivo
Visibilità : 
Base nubi : 
>= 8 km
>= 3000ft
5 / 8 km
1000 / 3000 ft
1500m / 5 km
500 / 1000 ft
800 / 1500m
200 / 500 ft
< 800m
< 200 ft
Simboli :   Temporali  Nebbia  Neve Forte  Precipitazioni Forti  Vento > 20 kt
SIGMETs :   Varie  Temporali  Ghiacco  Turbolenza  Onda orograficha  Ceneri Vulcaniche






- Altitudine del aeroporto : 20 ft
- Codice IATA : TIV


LYTV - Tivat - Montenegro

ULTIMO METAR :
  • 271100Z 36010G22KT 9999 FEW040 11/M04 Q1008 NOSIG

METARs OBSOLETI :
  • 271030Z 36009G26KT 9999 FEW040 11/M03 Q1007 NOSIG
  • 271000Z 02010G22KT 9999 FEW040 09/M03 Q1007 NOSIG
  • 270930Z 02010G20KT 9999 FEW020 SCT040 09/M02 Q1006 NOSIG
  • 270900Z VRB10KT 9999 FEW020 SCT040 08/M00 Q1005 NOSIG
  • 270830Z 02009KT 340V130 9999 FEW020 SCT040 08/01 Q1005 NOSIG

TAF TAF LYTV
Valido dal 27 a 06 ore il 28 a 06 ore UTC


270500Z 2706/2806 33010KT 9999 FEW023 BKN040 TX14/2712Z TN06/2804Z
TEMPO 2706/2709 5000 RA
PROB40
TEMPO 2706/2708 3000 TSRA FEW023CB BKN033
TEMPO 2707/2713 02015G28KT
BECMG 2800/2802 17009KT



MetMap, La meteo Aeronautica in un colpo d'occhio ! - Copyright ORBIFLY Dicembre 2007 - Disclaimer

ORBIFLY MET'MAP TEAM :

Programmazione e sviluppo : Alexandra Zaïnal
Concezione : Baudouin d'Aumeries
Aiuto per la programmazione : Marc-Olivier Méhu
Supporto tecnico e logistico : Manuel Goepfert
Aiuto per la traduzione : Arnaldo La Scala

Contatto : metmap@orbifly.com




FONTI E CREDITI :

   NOAA